Time;durP1;ratioP1;P1;durP2;ratioP2;P2;SDS_P1;SDS_P2;PMS_P1;PMS_P2;Temp;Humidity;BMP_temperature;BMP_pressure;BME280_temperature;BME280_humidity;BME280_pressure;Samples;Min_cycle;Max_cycle;Signal;HPM_P1;HPM_P2
2023/11/11 00:00:08;;;;;;;4.13;2.05;;;;;;;7.58;53.59;99459.19;4912139;29;20922;-75
2023/11/11 00:02:38;;;;;;;4.43;2.15;;;;;;;7.57;53.79;99461.03;4933262;29;20064;-75
2023/11/11 00:05:08;;;;;;;3.97;1.80;;;;;;;7.57;53.63;99471.06;4932262;29;20499;-76
2023/11/11 00:07:36;;;;;;;3.28;1.65;;;;;;;7.56;53.54;99461.19;4911927;29;20130;-76
2023/11/11 00:10:05;;;;;;;3.40;1.60;;;;;;;7.54;53.58;99464.06;4930739;29;20081;-75
2023/11/11 00:12:34;;;;;;;2.67;1.52;;;;;;;7.53;53.73;99470.50;4931678;28;20517;-75
2023/11/11 00:15:03;;;;;;;2.03;1.08;;;;;;;7.53;53.91;99469.63;4926806;28;20102;-75
2023/11/11 00:17:32;;;;;;;2.00;1.00;;;;;;;7.52;53.92;99471.50;4932805;28;20047;-76
2023/11/11 00:20:02;;;;;;;1.85;1.00;;;;;;;7.53;54.09;99470.50;4913884;29;20051;-76
2023/11/11 00:22:30;;;;;;;2.13;0.90;;;;;;;7.51;54.00;99471.69;4932552;29;20051;-76
2023/11/11 00:24:58;;;;;;;1.33;0.70;;;;;;;7.51;53.97;99483.44;4933170;29;20079;-75
2023/11/11 00:27:27;;;;;;;1.25;0.80;;;;;;;7.51;53.75;99482.56;4932505;28;20055;-76
2023/11/11 00:29:56;;;;;;;2.40;1.00;;;;;;;7.50;53.86;99487.16;4933105;29;20058;-77
2023/11/11 00:32:24;;;;;;;1.05;0.75;;;;;;;7.51;53.84;99490.72;4907790;29;20075;-76
2023/11/11 00:34:52;;;;;;;1.63;0.80;;;;;;;7.49;53.69;99485.44;4932405;29;20142;-76
2023/11/11 00:37:22;;;;;;;1.27;0.77;;;;;;;7.50;53.82;99484.44;4938705;28;20055;-75
2023/11/11 00:39:50;;;;;;;1.63;0.80;;;;;;;7.49;53.72;99500.91;4922718;29;20062;-76
2023/11/11 00:42:18;;;;;;;2.33;1.20;;;;;;;7.49;53.63;99511.78;4932102;29;20083;-76
2023/11/11 00:44:47;;;;;;;2.33;1.00;;;;;;;7.49;54.30;99514.50;4915372;28;20060;-76
2023/11/11 00:47:16;;;;;;;2.10;1.20;;;;;;;7.48;53.91;99521.81;4913662;29;20569;-76
2023/11/11 00:49:45;;;;;;;3.50;1.50;;;;;;;7.49;54.33;99522.69;4912903;29;20091;-75
2023/11/11 00:52:13;;;;;;;3.05;1.60;;;;;;;7.49;54.41;99522.69;4945820;28;20059;-75
2023/11/11 00:54:42;;;;;;;3.22;1.77;;;;;;;7.49;54.13;99522.69;4933931;28;20083;-76
2023/11/11 00:57:10;;;;;;;3.70;1.98;;;;;;;7.49;53.80;99528.13;4932021;28;20067;-76
2023/11/11 00:59:38;;;;;;;3.97;2.22;;;;;;;7.50;53.74;99529.84;4933373;29;20127;-75
2023/11/11 01:02:06;;;;;;;3.95;2.42;;;;;;;7.49;54.14;99534.44;4913009;29;20110;-75
2023/11/11 01:04:34;;;;;;;4.97;2.60;;;;;;;7.49;54.34;99545.31;4911423;29;20043;-76
2023/11/11 01:07:02;;;;;;;5.00;3.20;;;;;;;7.49;54.00;99541.72;4927665;29;20071;-75
2023/11/11 01:09:30;;;;;;;6.50;3.30;;;;;;;7.49;54.43;99544.47;4946300;28;20062;-76
2023/11/11 01:12:00;;;;;;;6.45;3.80;;;;;;;7.50;54.08;99536.16;4915186;29;20048;-75
2023/11/11 01:14:28;;;;;;;5.60;3.88;;;;;;;7.49;54.34;99539.88;4913074;29;20059;-75
2023/11/11 01:16:56;;;;;;;6.95;4.30;;;;;;;7.49;54.40;99541.72;4933566;28;20141;-75
2023/11/11 01:19:24;;;;;;;7.22;5.00;;;;;;;7.48;54.49;99540.00;4929124;29;20545;-76
2023/11/11 01:21:52;;;;;;;7.75;5.55;;;;;;;7.49;54.64;99541.72;4931336;28;20120;-75
2023/11/11 01:24:21;;;;;;;9.35;5.78;;;;;;;7.49;54.56;99541.72;4927476;29;20103;-75
2023/11/11 01:26:49;;;;;;;7.07;5.30;;;;;;;7.49;54.38;99539.00;4913039;29;20963;-75
2023/11/11 01:29:18;;;;;;;9.07;6.07;;;;;;;7.50;54.48;99544.31;4921582;29;20166;-75
2023/11/11 01:31:46;;;;;;;9.18;6.07;;;;;;;7.48;54.53;99549.03;4904702;29;20107;-76
2023/11/11 01:34:14;;;;;;;9.25;5.53;;;;;;;7.50;54.50;99554.34;4922416;29;20060;-75
2023/11/11 01:36:42;;;;;;;8.20;6.18;;;;;;;7.50;54.38;99555.22;4917191;29;20107;-75
2023/11/11 01:39:10;;;;;;;9.23;6.05;;;;;;;7.50;54.76;99560.66;4921120;29;20044;-75
2023/11/11 01:41:38;;;;;;;8.40;5.55;;;;;;;7.51;54.77;99564.22;4923706;29;20035;-75
2023/11/11 01:44:06;;;;;;;9.10;5.85;;;;;;;7.51;54.79;99570.53;4922798;29;20138;-75
2023/11/11 01:46:37;;;;;;;8.73;6.03;;;;;;;7.53;54.77;99576.66;4931251;29;20051;-75
2023/11/11 01:49:06;;;;;;;8.27;5.78;;;;;;;7.52;54.58;99582.25;4940641;28;20051;-75
2023/11/11 01:51:36;;;;;;;8.45;5.80;;;;;;;7.52;54.88;99574.09;4934015;29;20555;-75
2023/11/11 01:54:05;;;;;;;9.18;6.07;;;;;;;7.52;54.67;99579.53;4917647;29;20056;-75
2023/11/11 01:56:34;;;;;;;8.20;6.05;;;;;;;7.53;54.58;99582.13;4920704;29;20058;-75
2023/11/11 01:59:02;;;;;;;9.20;6.15;;;;;;;7.53;54.52;99590.28;4908451;29;20047;-75
2023/11/11 02:01:30;;;;;;;8.38;6.10;;;;;;;7.53;54.54;99589.44;4907486;29;20056;-75
2023/11/11 02:04:00;;;;;;;8.32;5.88;;;;;;;7.53;54.45;99594.88;4926378;29;20056;-76
2023/11/11 02:06:29;;;;;;;8.98;6.05;;;;;;;7.53;54.67;99603.03;4926374;29;20878;-75
2023/11/11 02:08:58;;;;;;;8.27;5.85;;;;;;;7.52;54.10;99606.75;4927462;29;20055;-75
2023/11/11 02:11:26;;;;;;;8.07;5.82;;;;;;;7.50;54.56;99601.50;4932128;28;20483;-75
2023/11/11 02:13:55;;;;;;;8.60;5.93;;;;;;;7.49;54.35;99599.75;4929334;29;20055;-75
2023/11/11 02:16:23;;;;;;;7.90;5.63;;;;;;;7.49;54.62;99607.06;4928401;28;20051;-75
2023/11/11 02:18:51;;;;;;;7.72;5.38;;;;;;;7.47;54.43;99609.94;4932899;29;20055;-76
2023/11/11 02:21:21;;;;;;;8.77;5.47;;;;;;;7.48;54.46;99622.53;4928585;28;20133;-75
2023/11/11 02:23:51;;;;;;;8.20;6.05;;;;;;;7.47;54.51;99620.81;4930351;28;20075;-77
2023/11/11 02:26:19;;;;;;;9.55;5.95;;;;;;;7.45;54.39;99624.69;4930829;29;20051;-75
2023/11/11 02:28:47;;;;;;;8.57;5.78;;;;;;;7.45;54.15;99625.53;4932257;29;20240;-75
2023/11/11 02:31:15;;;;;;;9.18;5.60;;;;;;;7.44;54.21;99622.97;4943357;28;20114;-74
2023/11/11 02:33:44;;;;;;;8.63;5.55;;;;;;;7.43;54.18;99621.28;4933574;28;20732;-75
2023/11/11 02:36:12;;;;;;;8.30;5.80;;;;;;;7.42;54.13;99628.56;4927150;28;20051;-75
2023/11/11 02:38:41;;;;;;;7.75;5.55;;;;;;;7.43;54.35;99634.88;4945082;28;20050;-75
2023/11/11 02:41:10;;;;;;;7.85;5.82;;;;;;;7.42;54.12;99625.00;4928236;29;20123;-75
2023/11/11 02:43:38;;;;;;;9.20;5.45;;;;;;;7.39;54.15;99631.56;4930517;29;20134;-75
2023/11/11 02:46:07;;;;;;;8.00;5.45;;;;;;;7.41;53.93;99639.59;4942704;28;20102;-74
2023/11/11 02:48:35;;;;;;;7.82;5.38;;;;;;;7.40;54.12;99636.03;4931148;28;20058;-75
2023/11/11 02:51:03;;;;;;;8.68;5.28;;;;;;;7.39;54.25;99642.47;4929654;29;20114;-75
2023/11/11 02:53:31;;;;;;;6.95;5.35;;;;;;;7.37;53.99;99639.00;4944528;29;20117;-76
2023/11/11 02:55:59;;;;;;;8.82;5.70;;;;;;;7.37;54.22;99649.91;4942830;28;20067;-75
2023/11/11 02:58:28;;;;;;;8.38;5.18;;;;;;;7.38;54.07;99645.31;4930464;28;20051;-75
2023/11/11 03:00:56;;;;;;;8.70;5.28;;;;;;;7.36;54.01;99650.91;4941874;28;20514;-75
2023/11/11 03:03:25;;;;;;;6.28;4.85;;;;;;;7.35;54.10;99651.94;4930608;28;20051;-75
2023/11/11 03:05:54;;;;;;;8.73;5.20;;;;;;;7.35;54.34;99648.34;4943897;28;20507;-75
2023/11/11 03:08:22;;;;;;;9.02;5.28;;;;;;;7.35;54.15;99657.38;4931018;28;20495;-74
2023/11/11 03:10:50;;;;;;;7.18;5.20;;;;;;;7.35;54.49;99662.81;4929636;29;20057;-75
2023/11/11 03:13:18;;;;;;;8.32;5.53;;;;;;;7.34;54.28;99661.09;4931539;29;20123;-75
2023/11/11 03:15:48;;;;;;;7.68;5.53;;;;;;;7.35;54.18;99660.09;4927337;29;20053;-75
2023/11/11 03:18:16;;;;;;;8.63;6.13;;;;;;;7.34;53.82;99673.84;4919497;29;20135;-75
2023/11/11 03:20:44;;;;;;;9.13;6.20;;;;;;;7.33;54.30;99675.69;4915361;29;20051;-75
2023/11/11 03:23:12;;;;;;;9.15;5.95;;;;;;;7.34;54.04;99673.84;4963258;28;20130;-74
2023/11/11 03:25:40;;;;;;;8.90;6.20;;;;;;;7.34;53.86;99671.13;4961966;28;20050;-75
2023/11/11 03:28:08;;;;;;;9.77;6.20;;;;;;;7.31;53.98;99672.25;4960115;28;20050;-75
2023/11/11 03:30:36;;;;;;;9.20;6.35;;;;;;;7.31;53.87;99677.69;4958449;28;20510;-75
2023/11/11 03:33:06;;;;;;;9.18;6.38;;;;;;;7.32;53.89;99684.88;4961155;28;20170;-75
2023/11/11 03:35:34;;;;;;;10.40;6.45;;;;;;;7.30;53.95;99683.28;4934131;28;20050;-75
2023/11/11 03:38:02;;;;;;;8.02;6.05;;;;;;;7.30;53.92;99694.16;4957273;28;20599;-75
2023/11/11 03:40:30;;;;;;;8.82;6.35;;;;;;;7.28;54.07;99697.03;4961680;28;20054;-75
2023/11/11 03:42:58;;;;;;;8.48;5.93;;;;;;;7.27;54.13;99695.28;4962740;28;20047;-75
2023/11/11 03:45:26;;;;;;;9.02;6.13;;;;;;;7.27;53.87;99700.75;4960042;28;20054;-74
2023/11/11 03:47:54;;;;;;;9.68;5.90;;;;;;;7.27;53.98;99706.19;4960401;28;20047;-75
2023/11/11 03:50:24;;;;;;;9.30;5.93;;;;;;;7.27;54.30;99700.75;4977282;28;20055;-75
2023/11/11 03:52:52;;;;;;;8.50;5.68;;;;;;;7.26;53.91;99712.66;4962585;28;20063;-76
2023/11/11 03:55:20;;;;;;;9.73;6.10;;;;;;;7.26;53.87;99719.97;4960943;28;20058;-76
2023/11/11 03:57:48;;;;;;;8.90;5.70;;;;;;;7.26;54.03;99719.97;4961386;28;20046;-75
2023/11/11 04:00:19;;;;;;;8.98;5.55;;;;;;;7.25;54.28;99726.41;4959405;28;20130;-75
2023/11/11 04:02:47;;;;;;;7.78;5.38;;;;;;;7.24;54.57;99725.53;4954108;28;21188;-75
2023/11/11 04:05:17;;;;;;;8.25;5.60;;;;;;;7.25;54.18;99731.84;4961763;28;20192;-75
2023/11/11 04:07:47;;;;;;;7.70;5.20;;;;;;;7.25;54.15;99729.13;4960228;28;20054;-75
2023/11/11 04:10:17;;;;;;;8.80;4.70;;;;;;;7.24;54.19;99739.13;4959475;28;20141;-75
2023/11/11 04:12:45;;;;;;;6.97;4.35;;;;;;;7.24;54.39;99743.72;4960841;28;20101;-75
2023/11/11 04:15:13;;;;;;;5.97;4.00;;;;;;;7.24;54.49;99755.47;4959614;28;20051;-75
2023/11/11 04:17:42;;;;;;;6.30;4.30;;;;;;;7.24;54.46;99749.16;4959975;28;20057;-75
2023/11/11 04:20:12;;;;;;;7.60;4.07;;;;;;;7.26;54.32;99749.91;4959311;28;21287;-75
2023/11/11 04:22:40;;;;;;;7.18;4.20;;;;;;;7.25;54.50;99757.19;4958134;28;20106;-75
2023/11/11 04:25:10;;;;;;;6.32;4.30;;;;;;;7.26;54.34;99767.09;4961075;28;20057;-75
2023/11/11 04:27:41;;;;;;;6.00;4.10;;;;;;;7.24;54.17;99763.63;4959978;28;20994;-76
2023/11/11 04:30:10;;;;;;;7.90;4.05;;;;;;;7.24;54.03;99773.66;4959421;28;20051;-75
2023/11/11 04:32:38;;;;;;;7.90;4.30;;;;;;;7.24;54.41;99781.81;4960460;28;20057;-75
2023/11/11 04:35:07;;;;;;;7.50;4.00;;;;;;;7.24;53.86;99784.53;4961865;28;20101;-75
2023/11/11 04:37:35;;;;;;;6.80;4.05;;;;;;;7.22;54.30;99781.09;4961126;28;20138;-75
2023/11/11 04:40:07;;;;;;;6.28;3.72;;;;;;;7.22;54.15;99781.94;4961313;28;20047;-76
2023/11/11 04:42:38;;;;;;;6.88;4.20;;;;;;;7.22;54.27;99784.69;4961373;28;20054;-76
2023/11/11 04:45:08;;;;;;;6.93;4.18;;;;;;;7.21;54.15;99791.13;4975576;28;20054;-75
2023/11/11 04:47:36;;;;;;;5.85;3.53;;;;;;;7.22;54.28;99791.97;4960738;28;20149;-76
2023/11/11 04:50:04;;;;;;;6.53;3.85;;;;;;;7.22;53.63;99798.28;4960289;28;20557;-75
2023/11/11 04:52:35;;;;;;;4.72;3.20;;;;;;;7.21;54.05;99796.56;4959857;28;20046;-75
2023/11/11 04:55:04;;;;;;;7.82;3.58;;;;;;;7.20;53.94;99801.13;4960692;28;20050;-75
2023/11/11 04:57:32;;;;;;;5.93;3.25;;;;;;;7.20;54.02;99811.16;4959734;28;20058;-76
2023/11/11 05:00:05;;;;;;;5.32;2.75;;;;;;;7.21;54.23;99815.59;4961254;28;20728;-75
2023/11/11 05:02:33;;;;;;;6.53;3.83;;;;;;;7.18;53.86;99815.91;4961094;28;20077;-75
2023/11/11 05:05:01;;;;;;;5.85;2.45;;;;;;;7.18;54.07;99813.19;4960376;28;20047;-75
2023/11/11 05:07:29;;;;;;;5.38;2.50;;;;;;;7.18;54.22;99824.06;4960815;28;20055;-76
2023/11/11 05:09:57;;;;;;;4.38;2.13;;;;;;;7.18;54.26;99822.22;4961200;28;20051;-75
2023/11/11 05:12:25;;;;;;;4.50;2.00;;;;;;;7.18;54.31;99826.78;4958352;28;20055;-76
2023/11/11 05:14:54;;;;;;;4.03;1.67;;;;;;;7.18;54.21;99833.09;4958190;28;20046;-75
2023/11/11 05:17:25;;;;;;;4.53;1.60;;;;;;;7.19;53.94;99836.66;4958776;28;20141;-80
2023/11/11 05:19:54;;;;;;;2.87;1.63;;;;;;;7.17;53.94;99844.09;4958759;28;20050;-75
2023/11/11 05:22:23;;;;;;;4.20;1.50;;;;;;;7.18;53.73;99846.69;4959978;28;20142;-75
2023/11/11 05:24:51;;;;;;;3.22;1.67;;;;;;;7.19;54.19;99850.25;4960865;28;20113;-76
2023/11/11 05:27:19;;;;;;;3.25;1.50;;;;;;;7.18;53.95;99851.28;4959585;28;20418;-80
2023/11/11 05:29:47;;;;;;;3.63;1.50;;;;;;;7.19;53.76;99861.13;4960138;28;20054;-75
2023/11/11 05:32:15;;;;;;;3.38;1.30;;;;;;;7.18;53.99;99868.47;4960119;28;20133;-75
2023/11/11 05:34:44;;;;;;;2.20;1.10;;;;;;;7.19;54.06;99864.72;4962356;28;20050;-75
2023/11/11 05:37:13;;;;;;;3.80;1.30;;;;;;;7.18;53.63;99871.19;4963068;28;20050;-76
2023/11/11 05:39:44;;;;;;;2.92;1.40;;;;;;;7.20;53.71;99879.19;4963728;28;20181;-75
2023/11/11 05:42:13;;;;;;;3.65;1.35;;;;;;;7.18;53.67;99882.06;4962636;28;20043;-75
2023/11/11 05:44:41;;;;;;;2.58;1.20;;;;;;;7.19;53.63;99880.19;4963221;28;20054;-75
2023/11/11 05:47:09;;;;;;;2.13;1.10;;;;;;;7.18;53.80;99884.78;4963241;28;20058;-75
2023/11/11 05:49:40;;;;;;;2.90;1.20;;;;;;;7.19;53.71;99891.06;4962244;28;20055;-75
2023/11/11 05:52:09;;;;;;;4.45;1.38;;;;;;;7.20;53.85;99899.09;4962859;28;20070;-75
2023/11/11 05:54:37;;;;;;;2.58;1.45;;;;;;;7.19;54.03;99900.09;4963205;28;20138;-75
2023/11/11 05:57:06;;;;;;;4.78;1.38;;;;;;;7.19;53.72;99901.94;4961817;28;20051;-75
2023/11/11 05:59:33;;;;;;;4.40;1.45;;;;;;;7.19;54.04;99912.84;4962969;28;20169;-74
2023/11/11 06:02:03;;;;;;;3.05;1.55;;;;;;;7.19;53.92;99910.97;4961341;28;20050;-75
2023/11/11 06:04:33;;;;;;;4.53;1.70;;;;;;;7.20;53.70;99906.41;4961042;28;20162;-75
2023/11/11 06:07:02;;;;;;;4.63;1.85;;;;;;;7.19;54.02;99913.69;4962935;28;20054;-75
2023/11/11 06:09:32;;;;;;;4.70;2.17;;;;;;;7.21;53.98;99910.84;4960821;28;20047;-74
2023/11/11 06:12:01;;;;;;;4.97;2.40;;;;;;;7.19;54.16;99913.69;4962537;28;20708;-75
2023/11/11 06:14:28;;;;;;;4.10;2.28;;;;;;;7.19;54.06;99910.97;4960880;28;20057;-75
2023/11/11 06:16:56;;;;;;;5.32;2.50;;;;;;;7.20;53.98;99915.44;4960109;28;20050;-74
2023/11/11 06:19:26;;;;;;;5.45;2.65;;;;;;;7.21;54.36;99924.47;4961728;28;20078;-75
2023/11/11 06:21:54;;;;;;;5.28;2.90;;;;;;;7.20;53.94;99923.59;4959913;28;20109;-74
2023/11/11 06:24:22;;;;;;;5.00;3.00;;;;;;;7.21;54.28;99916.28;4960643;28;20051;-74
2023/11/11 06:26:51;;;;;;;5.30;3.20;;;;;;;7.22;54.05;99918.03;4954638;28;20117;-74
2023/11/11 06:29:19;;;;;;;7.15;3.30;;;;;;;7.22;54.04;99920.75;4959771;28;20054;-74
2023/11/11 06:31:47;;;;;;;6.03;3.20;;;;;;;7.21;54.15;99919.00;4962089;28;20149;-75
2023/11/11 06:34:15;;;;;;;4.82;3.42;;;;;;;7.19;53.70;99919.16;4960297;28;20047;-75
2023/11/11 06:36:43;;;;;;;6.30;3.25;;;;;;;7.19;53.95;99926.44;4961092;28;20054;-75
2023/11/11 06:39:13;;;;;;;6.90;3.60;;;;;;;7.17;53.94;99925.75;4963214;28;20047;-75
2023/11/11 06:41:42;;;;;;;6.07;3.22;;;;;;;7.17;53.73;99928.47;4964520;28;20057;-75
2023/11/11 06:44:11;;;;;;;6.05;3.13;;;;;;;7.17;53.66;99918.44;4958755;28;20063;-75
2023/11/11 06:46:39;;;;;;;5.32;3.15;;;;;;;7.15;53.40;99930.44;4959584;28;20054;-75
2023/11/11 06:49:07;;;;;;;4.78;2.67;;;;;;;7.13;53.32;99937.88;4954016;28;20054;-75
2023/11/11 06:51:35;;;;;;;5.38;3.10;;;;;;;7.12;53.45;99933.44;4959208;28;20486;-75
2023/11/11 06:54:07;;;;;;;5.65;3.13;;;;;;;7.11;53.73;99939.84;4960977;28;20050;-74
2023/11/11 06:56:35;;;;;;;6.38;3.00;;;;;;;7.09;53.21;99942.75;4960719;28;20125;-75
2023/11/11 06:59:03;;;;;;;5.22;2.75;;;;;;;7.08;53.50;99946.47;4960902;28;20070;-74
2023/11/11 07:01:33;;;;;;;4.85;2.97;;;;;;;7.08;53.49;99954.63;4961784;28;20055;-74
2023/11/11 07:04:02;;;;;;;5.43;2.97;;;;;;;7.06;53.24;99950.28;4961948;28;20133;-74
2023/11/11 07:06:30;;;;;;;5.25;2.78;;;;;;;7.04;53.36;99958.59;4959987;28;20065;-74
2023/11/11 07:08:58;;;;;;;5.00;3.15;;;;;;;7.02;53.23;99957.88;4960869;28;20133;-74
2023/11/11 07:11:26;;;;;;;6.45;3.17;;;;;;;7.01;53.45;99953.44;4960776;28;21063;-74
2023/11/11 07:13:55;;;;;;;5.95;3.30;;;;;;;7.00;53.36;99959.88;4959457;28;20558;-74
2023/11/11 07:16:23;;;;;;;6.45;3.33;;;;;;;6.98;53.39;99964.56;4959411;28;20199;-74
2023/11/11 07:18:54;;;;;;;5.78;3.47;;;;;;;6.99;53.18;99966.31;4959583;28;20145;-74
2023/11/11 07:21:24;;;;;;;7.20;3.38;;;;;;;6.98;53.48;99967.28;4961394;28;20062;-74
2023/11/11 07:23:52;;;;;;;5.38;3.00;;;;;;;6.97;53.25;99968.28;4961684;28;20442;-73
2023/11/11 07:26:21;;;;;;;8.00;3.60;;;;;;;6.97;53.18;99970.13;4959736;28;20130;-73
2023/11/11 07:28:49;;;;;;;5.32;3.22;;;;;;;6.96;53.34;99977.44;4961602;28;20050;-74
2023/11/11 07:31:18;;;;;;;7.40;4.28;;;;;;;6.95;53.47;99981.16;4959670;28;20051;-74
2023/11/11 07:33:46;;;;;;;7.30;3.97;;;;;;;6.96;53.03;99990.16;4959678;28;20558;-74
2023/11/11 07:36:16;;;;;;;6.57;3.83;;;;;;;6.96;53.13;99990.16;4958328;28;20046;-74
2023/11/11 07:38:46;;;;;;;7.13;4.25;;;;;;;6.94;53.33;100003.91;4961646;28;20953;-73
2023/11/11 07:41:18;;;;;;;6.78;3.83;;;;;;;6.96;53.53;99999.19;4958651;28;20069;-73
2023/11/11 07:43:48;;;;;;;7.45;3.97;;;;;;;6.92;53.58;100005.03;4960439;28;20051;-73
2023/11/11 07:46:19;;;;;;;8.18;4.05;;;;;;;6.95;53.11;99993.88;4960771;28;20055;-75
2023/11/11 07:48:46;;;;;;;7.60;4.60;;;;;;;6.94;53.21;100006.63;4959728;28;21075;-74
2023/11/11 07:51:17;;;;;;;8.60;4.32;;;;;;;6.97;53.44;100013.66;4960826;28;20070;-74
2023/11/11 07:53:45;;;;;;;7.68;4.30;;;;;;;6.96;53.16;99998.34;4960045;28;20153;-74
2023/11/11 07:56:15;;;;;;;8.70;5.05;;;;;;;6.97;53.15;100002.78;4968322;23;20051;-85
2023/11/11 07:58:47;;;;;;;;;;;;;;;6.72;54.08;100010.28;4933788;29;20064;-86
2023/11/11 08:01:17;;;;;;;7.75;4.45;;;;;;;6.90;53.46;100012.47;4941927;29;19923;-87
2023/11/11 08:03:45;;;;;;;8.10;4.72;;;;;;;6.93;53.28;100013.09;4957162;28;20571;-89
2023/11/11 08:06:13;;;;;;;9.23;5.13;;;;;;;6.95;53.25;100008.34;4939184;28;20044;-88
2023/11/11 08:08:44;;;;;;;9.38;5.18;;;;;;;6.95;52.92;100008.34;4938298;28;20410;-87
2023/11/11 08:11:14;;;;;;;9.75;5.18;;;;;;;6.96;52.88;100011.94;4961555;28;20047;-86
2023/11/11 08:13:42;;;;;;;8.25;4.90;;;;;;;6.96;53.27;100014.66;4957866;28;20058;-84
2023/11/11 08:16:12;;;;;;;10.88;5.18;;;;;;;6.95;53.36;100012.94;4964098;28;20057;-84
2023/11/11 08:18:40;;;;;;;8.95;5.30;;;;;;;6.96;53.18;100014.66;4949578;28;20062;-84
2023/11/11 08:21:19;;;;;;;9.77;5.53;;;;;;;6.94;53.36;100022.94;4948313;28;20090;-86
2023/11/11 08:44:22;;;;;;;8.80;4.82;;;;;;;6.88;53.30;100034.34;4853137;28;20058;-86
2023/11/11 08:46:54;;;;;;;8.57;4.15;;;;;;;6.92;53.55;100037.69;4942138;28;20133;-86
2023/11/11 08:49:23;;;;;;;8.02;4.72;;;;;;;6.97;53.63;100049.91;4937301;28;20063;-87
2023/11/11 08:51:52;;;;;;;8.95;4.70;;;;;;;6.98;53.63;100050.75;4938195;28;20044;-88
2023/11/11 08:54:20;;;;;;;9.27;4.88;;;;;;;6.98;53.35;100048.91;4936064;28;20137;-87
2023/11/11 08:56:54;;;;;;;8.93;4.85;;;;;;;7.03;53.13;100054.81;4938028;28;20990;-87
2023/11/11 08:59:27;;;;;;;7.90;4.60;;;;;;;7.04;53.31;100055.66;4940202;28;20047;-87
2023/11/11 09:01:55;;;;;;;9.93;4.68;;;;;;;7.04;53.27;100053.81;4940860;28;20067;-87
2023/11/11 09:04:26;;;;;;;8.60;4.90;;;;;;;7.06;53.31;100048.25;4938324;28;20039;-88
2023/11/11 09:06:57;;;;;;;7.78;4.63;;;;;;;7.06;53.60;100051.81;4949142;28;20051;-87
2023/11/11 09:09:25;;;;;;;7.65;4.32;;;;;;;7.07;53.40;100058.13;4953939;28;20059;-86
2023/11/11 09:11:54;;;;;;;9.23;4.60;;;;;;;7.09;53.42;100061.59;4945959;28;20078;-86
2023/11/11 09:14:22;;;;;;;7.63;4.43;;;;;;;7.13;53.60;100061.19;4940590;28;20482;-86
2023/11/11 09:16:52;;;;;;;8.00;4.40;;;;;;;7.16;53.39;100055.50;4951640;28;20063;-86
2023/11/11 09:19:23;;;;;;;7.68;4.30;;;;;;;7.16;53.69;100057.34;4940088;28;20055;-87
2023/11/11 09:21:58;;;;;;;7.95;4.63;;;;;;;7.20;53.77;100050.63;4956074;28;20039;-88
2023/11/11 09:24:33;;;;;;;6.82;4.00;;;;;;;7.21;53.98;100055.09;4936178;28;20075;-89
2023/11/11 09:27:34;;;;;;;9.15;4.65;;;;;;;7.24;53.55;100060.28;4932551;28;20059;-87
2023/11/11 09:30:47;;;;;;;7.40;3.88;;;;;;;7.24;53.99;100062.13;4924834;28;20113;-86
2023/11/11 09:33:46;;;;;;;;;;;;;;;;;;;;;
2023/11/11 09:36:26;;;;;;;8.57;3.75;;;;;;;7.32;53.67;100059.59;4959509;28;20054;-89
2023/11/11 09:38:54;;;;;;;8.05;4.57;;;;;;;7.34;53.96;100057.63;4946703;29;20047;-87
2023/11/11 09:41:23;;;;;;;8.20;4.57;;;;;;;7.39;53.78;100068.97;4940763;28;20047;-86
2023/11/11 09:47:29;;;;;;;9.68;4.85;;;;;;;7.42;53.75;100069.56;4932571;28;20046;-88
2023/11/11 09:50:09;;;;;;;7.85;4.88;;;;;;;7.44;53.42;100073.00;4944897;28;20055;-88
2023/11/11 09:52:40;;;;;;;9.02;4.25;;;;;;;7.46;53.37;100073.75;4956276;28;20054;-87
2023/11/11 09:55:10;;;;;;;10.15;4.85;;;;;;;7.49;53.41;100081.66;4957021;28;20055;-88
2023/11/11 09:57:39;;;;;;;8.52;4.85;;;;;;;7.52;53.47;100073.19;4957241;28;20078;-88
2023/11/11 10:00:11;;;;;;;9.13;4.55;;;;;;;7.54;53.57;100079.38;4943377;28;20047;-88
2023/11/11 10:02:41;;;;;;;10.93;5.57;;;;;;;7.54;53.46;100076.66;4941100;28;20070;-88
2023/11/11 10:05:12;;;;;;;10.15;5.47;;;;;;;7.56;52.96;100077.38;4942438;28;20069;-87
2023/11/11 10:07:46;;;;;;;8.18;4.47;;;;;;;7.59;53.21;100084.44;4933701;28;20055;-87
2023/11/11 10:10:29;;;;;;;;;;;;;;;;;;;;;
2023/11/11 10:13:02;;;;;;;8.27;4.97;;;;;;;7.57;52.70;100086.44;4930803;29;20051;-88
2023/11/11 10:15:40;;;;;;;7.93;4.30;;;;;;;7.61;53.33;100078.81;4941648;28;20054;-87
2023/11/11 10:18:11;;;;;;;;;;;;;;;7.36;53.70;100085.53;4945127;28;20061;-86
2023/11/11 10:20:41;;;;;;;7.25;4.07;;;;;;;7.56;53.04;100073.81;4947312;28;19930;-86
2023/11/11 10:23:15;;;;;;;6.90;3.88;;;;;;;7.58;53.19;100072.69;4935788;28;21191;-87
2023/11/11 10:25:51;;;;;;;6.80;4.03;;;;;;;7.62;52.74;100075.97;4920871;29;20142;-88
2023/11/11 10:58:07;;;;;;;4.85;3.00;;;;;;;8.06;54.76;100076.63;4903041;29;20055;-83
2023/11/11 11:00:37;;;;;;;6.25;3.47;;;;;;;8.17;55.19;100085.63;4932338;28;20186;-80
2023/11/11 11:03:06;;;;;;;7.43;3.25;;;;;;;8.30;55.32;100090.81;4951640;28;20134;-81
2023/11/11 11:05:41;;;;;;;5.47;3.28;;;;;;;8.43;55.17;100076.91;4969320;28;20051;-82
2023/11/11 11:08:19;;;;;;;6.50;2.90;;;;;;;8.54;54.73;100082.25;4970953;28;20067;-82
2023/11/11 11:10:58;;;;;;;6.20;2.90;;;;;;;8.69;54.84;100089.91;4989398;28;20497;-83
2023/11/11 11:13:28;;;;;;;4.72;3.08;;;;;;;8.80;54.74;100096.25;4977067;28;20076;-83
2023/11/11 11:15:56;;;;;;;6.32;3.53;;;;;;;8.91;54.92;100086.06;4972679;28;20813;-83
2023/11/11 11:18:26;;;;;;;5.55;2.60;;;;;;;9.03;54.53;100086.78;4972167;28;20538;-80
2023/11/11 11:20:55;;;;;;;5.00;3.10;;;;;;;9.13;54.00;100084.06;4999225;28;20069;-80
2023/11/11 11:23:24;;;;;;;4.47;2.70;;;;;;;9.21;53.72;100084.19;4974774;28;20050;-83
2023/11/11 11:25:52;;;;;;;6.80;3.15;;;;;;;9.30;53.78;100092.38;4972683;28;20070;-82
2023/11/11 11:28:35;;;;;;;6.40;3.17;;;;;;;9.38;53.78;100099.84;4978441;28;20070;-80
2023/11/11 11:57:25;;;;;;;4.45;2.40;;;;;;;9.43;50.20;100100.28;4889223;29;21335;-86
2023/11/11 15:20:18;;;;;;;3.33;1.30;;;;;;;8.89;48.04;100208.13;4998752;28;20625;-88
2023/11/11 15:55:05;;;;;;;3.03;1.50;;;;;;;8.63;48.88;100217.81;5003240;28;20045;-87
2023/11/11 15:57:35;;;;;;;3.90;1.73;;;;;;;8.68;49.27;100218.25;4904429;29;20063;-77
2023/11/11 16:00:04;;;;;;;4.18;1.92;;;;;;;8.68;48.81;100216.38;4897607;29;20057;-76
2023/11/11 16:02:38;;;;;;;3.45;1.55;;;;;;;8.69;49.15;100223.56;4891761;29;20431;-77
2023/11/11 16:05:08;;;;;;;4.38;1.70;;;;;;;8.71;48.83;100223.44;4891186;29;20052;-77
2023/11/11 16:07:37;;;;;;;3.63;1.52;;;;;;;8.71;49.05;100237.06;4890385;29;20394;-76
2023/11/11 16:10:06;;;;;;;4.15;1.60;;;;;;;8.71;48.78;100224.31;4888833;29;20053;-76
2023/11/11 16:12:35;;;;;;;3.10;1.70;;;;;;;8.74;48.84;100228.63;4891541;29;20060;-77
2023/11/11 16:15:05;;;;;;;2.70;1.67;;;;;;;8.72;48.50;100225.16;4895867;29;20059;-77
2023/11/11 16:17:33;;;;;;;2.53;1.48;;;;;;;8.71;48.48;100231.63;4909311;29;20062;-76
2023/11/11 16:20:05;;;;;;;3.70;1.90;;;;;;;8.71;48.55;100237.06;4919057;29;20411;-76
2023/11/11 16:22:33;;;;;;;2.97;1.48;;;;;;;8.67;48.62;100235.66;4918979;29;20066;-77
2023/11/11 16:25:01;;;;;;;2.58;1.50;;;;;;;8.69;48.38;100244.53;4921694;29;20328;-77
2023/11/11 16:27:30;;;;;;;3.55;1.92;;;;;;;8.68;48.48;100242.78;4919953;29;20062;-77
2023/11/11 16:29:59;;;;;;;3.40;1.60;;;;;;;8.69;48.14;100244.53;4919116;29;20423;-77
2023/11/11 16:32:28;;;;;;;4.22;1.88;;;;;;;8.65;48.42;100245.81;4918748;29;20751;-76
2023/11/11 16:34:56;;;;;;;3.50;1.60;;;;;;;8.65;48.07;100251.28;4918844;29;20119;-76
2023/11/11 16:37:24;;;;;;;2.88;1.60;;;;;;;8.62;48.17;100260.59;4916133;29;20044;-73
2023/11/11 16:39:52;;;;;;;3.97;1.80;;;;;;;8.61;48.48;100263.44;4916051;29;20052;-74
2023/11/11 16:42:20;;;;;;;3.35;1.58;;;;;;;8.59;48.45;100270.88;4916571;29;20086;-74
2023/11/11 16:44:48;;;;;;;3.58;1.70;;;;;;;8.58;48.50;100272.78;4917463;29;20420;-62
2023/11/11 16:47:19;;;;;;;4.90;2.20;;;;;;;8.58;48.23;100285.56;4917339;29;20055;-74
2023/11/11 16:49:47;;;;;;;5.45;2.65;;;;;;;8.55;48.35;100281.22;4916390;29;20055;-74
2023/11/11 16:52:15;;;;;;;9.13;3.80;;;;;;;8.54;48.56;100289.53;4917590;29;20090;-73
2023/11/11 16:54:43;;;;;;;5.20;2.95;;;;;;;8.53;48.26;100282.34;4915470;29;20545;-73
2023/11/11 16:57:11;;;;;;;5.97;3.13;;;;;;;8.51;48.18;100287.06;4917560;29;20057;-73
2023/11/11 16:59:39;;;;;;;6.03;3.03;;;;;;;8.48;48.15;100282.78;4917578;29;20580;-73
2023/11/11 17:02:07;;;;;;;8.57;4.13;;;;;;;8.48;48.34;100282.78;4907599;29;20558;-73
2023/11/11 17:04:37;;;;;;;6.60;3.63;;;;;;;8.48;48.18;100279.19;4911575;29;20062;-73